D/T METAR WX W/DIR W/SPE G/SPE TEMP DEWP
22/01/20 06:50 EGQK 220650Z AUTO 25010KT 9999 SCT033/// BKN044/// 11/08 Q1034 WSW (250°) 11.5mph 11°C 8°C
22/01/20 05:50 EGQK 220550Z AUTO 25008KT 9999 BKN035/// SCT044/// 11/08 Q1034 WSW (250°) 9.2mph 11°C 8°C
22/01/20 04:50 EGQK 220450Z AUTO 24012KT 9999 BKN040/// BKN050/// 11/09 Q1033 WSW (240°) 13.8mph 11°C 9°C
22/01/20 03:50 EGQK 220350Z AUTO 24013KT 9999 OVC050/// 12/09 Q1034 WSW (240°) 15.0mph 12°C 9°C
22/01/20 02:50 EGQK 220250Z AUTO 25011KT 9999 BKN050/// 11/09 Q1034 WSW (250°) 12.7mph 11°C 9°C
22/01/20 01:50 EGQK 220150Z AUTO 23013KT 9999 FEW028/// BKN050/// 10/09 Q1033 SW (230°) 15.0mph 10°C 9°C
22/01/20 00:50 EGQK 220050Z AUTO 23010KT 9999 BKN029/// 10/09 Q1034 SW (230°) 11.5mph 10°C 9°C
21/01/20 23:50 EGQK 212350Z AUTO 23007KT 9999 BKN041/// BKN050/// 10/09 Q1034 RERA SW (230°) 8.1mph 10°C 9°C
21/01/20 22:50 EGQK 212250Z AUTO 24006KT 9999 -RA SCT042/// BKN070/// 09/09 Q1034 -RA WSW (240°) 6.9mph 9°C 9°C
21/01/20 21:50 EGQK 212150Z AUTO 24002KT 9999 BKN032/// BKN039/// 07/07 Q1034 RERA WSW (240°) 2.3mph 7°C 7°C
21/01/20 20:50 EGQK 212050Z AUTO 09002KT 9999 FEW021/// BKN027/// 08/08 Q1034 REDZ E (90°) 2.3mph 8°C 8°C
21/01/20 19:50 EGQK 211950Z AUTO 10002KT 7000 BR BKN020/// 08/07 Q1034 BR E (100°) 2.3mph 8°C 7°C
21/01/20 18:50 EGQK 211850Z AUTO 13003KT 9999 FEW006/// BKN019/// 08/08 Q1034 SE (130°) 3.5mph 8°C 8°C
21/01/20 17:50 EGQK 211750Z AUTO 10003KT 9999 BKN005/// BKN015/// 08/07 Q1034 E (100°) 3.5mph 8°C 7°C
21/01/20 16:50 EGQK 211650Z AUTO 00000KT 1100 BR SCT015/// BKN040/// 06/06 Q1034 BR N (0°) 6°C 6°C
21/01/20 15:50 EGQK 211550Z AUTO 17004KT 6000 BR SCT006/// BKN017/// BKN027/// 07/07 Q1034 REDZ BR S (170°) 4.6mph 7°C 7°C
21/01/20 14:50 EGQK 211450Z AUTO 02002KT 5000 -DZ SCT002/// BKN008/// 07/07 Q1035 -DZ NNE (20°) 2.3mph 7°C 7°C
21/01/20 13:50 EGQK 211350Z AUTO 36005KT 5000 BR OVC002/// 08/08 Q1035 RERA BR N (360°) 5.8mph 8°C 8°C
21/01/20 12:50 EGQK 211250Z AUTO 33004KT 1400 BKN002/// 08/08 Q1035 NNW (330°) 4.6mph 8°C 8°C
21/01/20 11:50 EGQK 211150Z AUTO 26002KT 9999 SCT013/// BKN024/// 09/09 Q1035 W (260°) 2.3mph 9°C 9°C
21/01/20 10:50 EGQK 211050Z AUTO 27001KT 9999 FEW002/// SCT010/// BKN018/// 09/09 Q1035 W (270°) 1.2mph 9°C 9°C
21/01/20 09:50 EGQK 210950Z AUTO 17003KT 4900 BR FEW003/// BKN010/// 08/08 Q1035 RERA BR S (170°) 3.5mph 8°C 8°C
21/01/20 08:50 EGQK 210850Z AUTO 05002KT 2500 -DZ BKN002/// BKN009/// 08/08 Q1035 -DZ NE (50°) 2.3mph 8°C 8°C
21/01/20 07:50 EGQK 210750Z AUTO 33002KT 3900 BR BKN002/// BKN015/// 08/08 Q1035 REDZ BR NNW (330°) 2.3mph 8°C 8°C
21/01/20 06:50 EGQK 210650Z AUTO 30007KT 2800 +DZ BKN003/// 09/08 Q1035 +DZ WNW (300°) 8.1mph 9°C 8°C
21/01/20 05:50 EGQK 210550Z AUTO 25006KT 6000 -DZ BKN016/// 09/09 Q1034 -DZ WSW (250°) 6.9mph 9°C 9°C
21/01/20 04:50 EGQK 210450Z AUTO 24008KT 9999 SCT021/// BKN027/// BKN032/// 10/08 Q1034 WSW (240°) 9.2mph 10°C 8°C
21/01/20 03:50 EGQK 210350Z AUTO 24012KT 9999 BKN031/// BKN041/// 10/08 Q1034 WSW (240°) 13.8mph 10°C 8°C
21/01/20 02:50 EGQK 210250Z AUTO 24011KT 9999 BKN027/// SCT031/// 10/07 Q1034 WSW (240°) 12.7mph 10°C 7°C
21/01/20 01:50 EGQK 210150Z AUTO 24015KT 9999 BKN045/// 11/07 Q1033 WSW (240°) 17.3mph 11°C 7°C
21/01/20 00:50 EGQK 210050Z AUTO 24016KT 9999 BKN032/// 10/07 Q1033 WSW (240°) 18.4mph 10°C 7°C
20/01/20 23:50 EGQK 202350Z AUTO 24017KT 9999 FEW027/// 10/07 Q1033 WSW (240°) 19.6mph 10°C 7°C
20/01/20 22:50 EGQK 202250Z AUTO 22016KT 9999 BKN026/// 10/06 Q1033 SW (220°) 18.4mph 10°C 6°C
20/01/20 21:50 EGQK 202150Z AUTO 24022KT 9999 BKN028/// BKN035/// 10/06 Q1033 WSW (240°) 25.3mph 10°C 6°C
20/01/20 20:50 EGQK 202050Z AUTO 24021G34KT 9999 BKN031/// 10/06 Q1033 WSW (240°) 24.2mph 39.1mph 10°C 6°C
20/01/20 19:50 EGQK 201950Z AUTO 23018KT 9999 BKN030/// BKN037/// 10/06 Q1034 SW (230°) 20.7mph 10°C 6°C
20/01/20 18:50 EGQK 201850Z AUTO 23019KT 9999 BKN037/// 10/05 Q1034 SW (230°) 21.9mph 10°C 5°C
20/01/20 17:50 EGQK 201750Z AUTO 23019KT 9999 NCD 09/05 Q1034 SW (230°) 21.9mph 9°C 5°C
20/01/20 16:50 EGQK 201650Z AUTO 23020KT 9999 FEW028/// 09/05 Q1034 SW (230°) 23.0mph 9°C 5°C
20/01/20 15:50 EGQK 201550Z AUTO 23020KT 9999 BKN027/// SCT035/// 10/06 Q1035 SW (230°) 23.0mph 10°C 6°C
20/01/20 14:50 EGQK 201450Z AUTO 23018KT 9999 FEW034/// 11/05 Q1034 SW (230°) 20.7mph 11°C 5°C
20/01/20 13:50 EGQK 201350Z AUTO 23022KT 9999 NCD 11/05 Q1035 SW (230°) 25.3mph 11°C 5°C
20/01/20 12:50 EGQK 201250Z AUTO 23023G33KT 9999 NCD 10/05 Q1035 SW (230°) 26.5mph 38.0mph 10°C 5°C
20/01/20 11:50 EGQK 201150Z AUTO 23017KT 9999 NCD 10/05 Q1035 SW (230°) 19.6mph 10°C 5°C
20/01/20 10:50 EGQK 201050Z AUTO 23025G35KT 9999 NCD 10/05 Q1035 SW (230°) 28.8mph 40.3mph 10°C 5°C
20/01/20 09:50 EGQK 200950Z AUTO 23020KT 9999 NCD 09/05 Q1036 SW (230°) 23.0mph 9°C 5°C
20/01/20 08:50 EGQK 200850Z AUTO 22023G33KT 9999 FEW029/// 09/05 Q1035 SW (220°) 26.5mph 38.0mph 9°C 5°C
20/01/20 07:50 EGQK 200750Z AUTO 22018G30KT 9999 NCD 09/05 Q1036 SW (220°) 20.7mph 34.5mph 9°C 5°C